Orbital elements of NEOSSAT
| Launched | 24 February 2013 |
| Flight ended | – |
| Launch site | Satish Dhawan Space Centre, India (Formerly Sriharikota Launching Range) |
| Owner | Canada |
| NORAD ID | 39089 |
| Date fetched |
Epoch osculation |
Inc. [°] |
Ecc. | RA asc node [hr] |
Arg Peri. [°] |
Mean anom [°] |
Mean motion [rev/day] |
Abs. mag |
| Date fetched |
Epoch osculation |
Inc. [°] |
Ecc. | RA asc node [hr] |
Arg Peri. [°] |
Mean anom [°] |
Mean motion [rev/day] |
Abs. mag |
| 2026 May 08 17:57 | 2026 May 08 01:40:40 | 98.4172 | 0.00112 | 20.6039 | 12.5688 | 347.5776 | 14.35813 | – |
| 2026 May 07 17:58 | 2026 May 07 05:36:29 | 98.4171 | 0.00112 | 20.5495 | 14.9843 | 347.5776 | 14.35813 | – |
| 2026 May 06 17:57 | 2026 May 06 06:11:35 | 98.4171 | 0.00113 | 20.4860 | 17.8218 | 347.5776 | 14.35813 | – |
| 2026 May 05 17:57 | 2026 May 05 11:47:45 | 98.4170 | 0.00114 | 20.4361 | 19.9841 | 347.5776 | 14.35813 | – |
| 2026 May 04 17:57 | 2026 May 04 10:42:30 | 98.4169 | 0.00114 | 20.3681 | 22.9577 | 347.5776 | 14.35813 | – |
| 2026 May 03 17:57 | 2026 May 03 11:17:36 | 98.4169 | 0.00115 | 20.3046 | 25.7474 | 347.5776 | 14.35813 | – |
| 2026 May 02 17:57 | 2026 May 02 10:12:22 | 98.4168 | 0.00115 | 20.2365 | 28.7098 | 347.5776 | 14.35813 | – |
| 2026 May 01 17:56 | 2026 May 01 10:47:28 | 98.4168 | 0.00116 | 20.1731 | 31.4720 | 347.5776 | 14.35813 | – |
| 2026 Apr 30 17:56 | 2026 Apr 30 11:22:35 | 98.4168 | 0.00116 | 20.1096 | 34.2401 | 347.5776 | 14.35813 | – |
| 2026 Apr 29 17:57 | 2026 Apr 29 11:57:41 | 98.4169 | 0.00117 | 20.0461 | 36.9970 | 347.5776 | 14.35813 | – |
| 2026 Apr 28 17:56 | 2026 Apr 28 10:52:26 | 98.4169 | 0.00117 | 19.9780 | 39.9376 | 347.5776 | 14.35813 | – |
| 2026 Apr 27 17:58 | 2026 Apr 27 09:47:11 | 98.4169 | 0.00118 | 19.9100 | 42.8608 | 347.5776 | 14.35813 | – |
| 2026 Apr 26 17:58 | 2026 Apr 26 12:02:39 | 98.4169 | 0.00118 | 19.8511 | 45.3642 | 347.5776 | 14.35813 | – |
| 2026 Apr 25 17:58 | 2026 Apr 25 10:57:24 | 98.4170 | 0.00119 | 19.7830 | 48.2822 | 347.5776 | 14.35813 | – |
| 2026 Apr 24 17:59 | 2026 Apr 24 11:32:30 | 98.4169 | 0.00119 | 19.7195 | 50.9825 | 347.5776 | 14.35813 | – |
| 2026 Apr 23 17:57 | 2026 Apr 23 00:25:09 | 98.4169 | 0.00120 | 19.6243 | 54.9786 | 347.5776 | 14.35813 | – |
| 2026 Apr 22 17:57 | 2026 Apr 21 23:19:54 | 98.4168 | 0.00120 | 19.5563 | 57.8200 | 347.5776 | 14.35813 | – |
| 2026 Apr 21 17:57 | 2026 Apr 21 09:57:06 | 98.4167 | 0.00120 | 19.5200 | 59.3204 | 347.5776 | 14.35813 | – |
| 2026 Apr 20 17:57 | 2026 Apr 20 10:32:13 | 98.4165 | 0.00120 | 19.4565 | 61.9964 | 347.5776 | 14.35813 | – |
| 2026 Apr 19 17:58 | 2026 Apr 19 06:06:16 | 98.4165 | 0.00121 | 19.3794 | 65.2193 | 347.5776 | 14.35813 | – |
| 2026 Apr 18 17:56 | 2026 Apr 18 01:40:19 | 98.4164 | 0.00121 | 19.3023 | 68.4196 | 347.5776 | 14.35813 | – |
| 2026 Apr 16 17:57 | 2026 Apr 16 06:11:13 | 98.4164 | 0.00122 | 19.1844 | 73.2950 | 347.5776 | 14.35813 | – |
| 2026 Apr 14 17:57 | 2026 Apr 14 10:42:06 | 98.4165 | 0.00122 | 19.0665 | 78.1645 | 347.5776 | 14.35813 | – |
| 2026 Apr 13 17:57 | 2026 Apr 13 06:16:09 | 98.4165 | 0.00122 | 18.9894 | 81.3700 | 347.5776 | 14.35813 | – |
| 2026 Apr 12 17:57 | 2026 Apr 12 00:09:51 | 98.4165 | 0.00122 | 18.9078 | 84.7296 | 347.5776 | 14.35813 | – |
| 2026 Apr 11 17:57 | 2026 Apr 11 10:47:03 | 98.4164 | 0.00122 | 18.8715 | 86.2313 | 347.5776 | 14.35813 | – |